Enid, OK

12:16 AM CDT en Julio 25, 2014 (GMT -0500)
pr14 (KOKENID6) Alt 1316 ft | 36.41 °N, 97.93 °W | Change Station
Aviso en curso: Heat Advisory

Current weather conditions updated 6 minutes ago

Despejado
Despejado
79.3 ° F
Sensación térmica 83 ° F
N
4.0
Viento Variable Viento desde Sur
Gusts 4.0 mph

Hoy se prevé un día Mucho más cálido que ayer.

Hoy
Alta -- | Baja -- ° F
--% Posibilidad de precipitaciones
Ayer
Alta -- | Baja -- ° F
Precip. -- pul
6:32 AM 8:43 PM
Creciente menguante, 3% visible
Presión 29.96 pul
Visibilidad 10.0 Millas
Nubes Despejado
Índice de calor 83 ° F
Punto de rocío 72 ° F
Humedad 79%
Precipitaciones 0.00 pul
Espesor de la nieve No disponible.
UV 0.0 de una escala de 12
Polen 5.40 de una escala de 12
Calidad del aire No disponible.
Flu Activity No disponible.
METAR KWDG 250455Z AUTO 16009KT 10SM CLR 26/22 A2996 RMK AO2

More Conditions Fewer Conditions

Presión 29.96 pul
Visibilidad 10.0 Millas
Nubes Despejado
Índice de calor 83 ° F
Punto de rocío 72 ° F
Humedad 79%
Precipitaciones 0.00 pul
Espesor de la nieve No disponible.
UV 0.0 de una escala de 12
Polen 5.40 de una escala de 12
Calidad del aire No disponible.
Flu Activity No disponible.
METAR KWDG 250455Z AUTO 16009KT 10SM CLR 26/22 A2996 RMK AO2

More Conditions Fewer Conditions

10-Day Weather Forecast

Almanac

Astronomía

Jul. 25, 2014 Salida Puesta
Hora real 6:32 AM CDT 8:43 PM CDT
Crepúsculo civil 6:03 AM CDT 9:11 PM CDT
Crepúsculo náutico 5:28 AM CDT 9:47 PM CDT
Crepúsculo astronómico 4:49 AM CDT 10:25 PM CDT
Luna 5:32 AM CDT 7:42 PM CDT
Horas de luz 15h 08m
Horas de luz
14h 10m
Tomorrow will be 1m 33s shorter.
Creciente menguante, 3% of the Moon is Illuminated
Hoy
Creciente menguante
Jul 26
Nueva
Ago 3
Cuarto creciente
Ago 10
Luna llena
Ago 17
Cuarto menguante

Extremos de hoy

Máximos del estado Bajos del estado

Community

WunderPhotos

Upload Photos

1,737,245 ¡fotos cargadas!

Nearby

Grosos de nieve

Estación Profundido Altura
No tenemos constancia de nieve nueva.

Actividad de terremotos

Ciudad Distance Mag. Tiempo y dato
Perry, Oklahoma 19 Millas 2.9 7:28 AM CDT
2014-07-20
Harper, Kansas 65 Millas 3.3 7:24 AM CDT
2014-07-20
Harper, Kansas 56 Millas 3.0 7:24 PM CDT
2014-07-19
Spencer, Oklahoma 62 Millas 2.7 4:56 PM CDT
2014-07-18
Magnitud mínima muestra es 2,5.

Temperaturas de aguas costeras

Lugar Temperatura
Sin partes meteorológicos de las estaciones

Estaciones meteorológicas cercanas

Ubicación de la estación Temp. Índice de calor Punto de rocío Humedad Viento Precip. Alt Actualizado Tipo
pr14, Enid, OK 79.3 ° F 83 ° F 72 ° F 79% Sur  a  4.0 mph 0.00 pul / hr 1316 ft 12:10 AM CDT Normal
MesoWest PNDCRK , Pond Creek, OK 82 ° F 80 ° F - - Norte  a  - 0.00 pul / hr 1068 ft 10:15 PM CDT MADIS
MesoWest HENESY , Hennessey, OK 126 ° F 107 ° F - - Norte  a  - 0.00 pul / hr 1166 ft 9:45 PM CDT MADIS

Show More Stations Show Fewer Stations